sensor_id;sensor_type;location;lat;lon;timestamp;P1;durP1;ratioP1;P2;durP2;ratioP2
44842;SDS011;31884;52.538;13.820;2023-06-26T00:01:02;10.20;;;9.10;;
44842;SDS011;31884;52.538;13.820;2023-06-26T00:03:27;11.65;;;9.13;;
44842;SDS011;31884;52.538;13.820;2023-06-26T00:05:54;9.80;;;8.73;;
44842;SDS011;31884;52.538;13.820;2023-06-26T00:08:19;8.75;;;7.43;;
44842;SDS011;31884;52.538;13.820;2023-06-26T00:10:45;13.82;;;9.85;;
44842;SDS011;31884;52.538;13.820;2023-06-26T00:13:11;11.50;;;9.13;;
44842;SDS011;31884;52.538;13.820;2023-06-26T00:15:37;10.30;;;8.43;;
44842;SDS011;31884;52.538;13.820;2023-06-26T00:18:03;12.75;;;10.48;;
44842;SDS011;31884;52.538;13.820;2023-06-26T00:20:28;9.93;;;8.93;;
44842;SDS011;31884;52.538;13.820;2023-06-26T00:22:54;12.32;;;10.23;;
44842;SDS011;31884;52.538;13.820;2023-06-26T00:25:21;15.63;;;10.27;;
44842;SDS011;31884;52.538;13.820;2023-06-26T00:27:47;10.57;;;9.15;;
44842;SDS011;31884;52.538;13.820;2023-06-26T00:30:12;11.25;;;8.73;;
44842;SDS011;31884;52.538;13.820;2023-06-26T00:32:38;11.25;;;9.38;;
44842;SDS011;31884;52.538;13.820;2023-06-26T00:35:03;11.23;;;9.45;;
44842;SDS011;31884;52.538;13.820;2023-06-26T00:37:29;13.05;;;8.35;;
44842;SDS011;31884;52.538;13.820;2023-06-26T00:39:54;11.35;;;8.57;;
44842;SDS011;31884;52.538;13.820;2023-06-26T00:42:20;9.77;;;8.70;;
44842;SDS011;31884;52.538;13.820;2023-06-26T00:44:45;13.07;;;9.07;;
44842;SDS011;31884;52.538;13.820;2023-06-26T00:47:11;11.98;;;8.93;;
44842;SDS011;31884;52.538;13.820;2023-06-26T00:49:40;10.50;;;8.98;;
44842;SDS011;31884;52.538;13.820;2023-06-26T00:52:06;10.90;;;9.27;;
44842;SDS011;31884;52.538;13.820;2023-06-26T00:54:31;11.02;;;8.75;;
44842;SDS011;31884;52.538;13.820;2023-06-26T00:56:57;12.55;;;8.60;;
44842;SDS011;31884;52.538;13.820;2023-06-26T00:59:22;12.35;;;9.60;;
44842;SDS011;31884;52.538;13.820;2023-06-26T01:01:48;11.43;;;9.07;;
44842;SDS011;31884;52.538;13.820;2023-06-26T01:04:14;11.95;;;8.55;;
44842;SDS011;31884;52.538;13.820;2023-06-26T01:06:48;9.52;;;8.52;;
44842;SDS011;31884;52.538;13.820;2023-06-26T01:09:20;10.77;;;8.60;;
44842;SDS011;31884;52.538;13.820;2023-06-26T01:11:47;10.43;;;8.85;;
44842;SDS011;31884;52.538;13.820;2023-06-26T01:14:12;9.80;;;8.48;;
44842;SDS011;31884;52.538;13.820;2023-06-26T01:16:39;8.82;;;7.93;;
44842;SDS011;31884;52.538;13.820;2023-06-26T01:19:13;9.52;;;7.97;;
44842;SDS011;31884;52.538;13.820;2023-06-26T01:21:50;9.57;;;8.57;;
44842;SDS011;31884;52.538;13.820;2023-06-26T01:24:22;9.75;;;8.13;;
44842;SDS011;31884;52.538;13.820;2023-06-26T01:26:52;11.85;;;9.65;;
44842;SDS011;31884;52.538;13.820;2023-06-26T01:29:18;12.73;;;9.63;;
44842;SDS011;31884;52.538;13.820;2023-06-26T01:31:44;10.15;;;8.57;;
44842;SDS011;31884;52.538;13.820;2023-06-26T01:34:13;14.15;;;9.05;;
44842;SDS011;31884;52.538;13.820;2023-06-26T01:36:40;9.77;;;8.68;;
44842;SDS011;31884;52.538;13.820;2023-06-26T01:39:06;11.40;;;8.77;;
44842;SDS011;31884;52.538;13.820;2023-06-26T01:41:33;11.60;;;8.48;;
44842;SDS011;31884;52.538;13.820;2023-06-26T01:44:17;9.57;;;7.75;;
44842;SDS011;31884;52.538;13.820;2023-06-26T01:47:14;9.48;;;7.97;;
44842;SDS011;31884;52.538;13.820;2023-06-26T01:49:46;12.38;;;8.90;;
44842;SDS011;31884;52.538;13.820;2023-06-26T01:52:18;11.82;;;8.90;;
44842;SDS011;31884;52.538;13.820;2023-06-26T01:57:39;12.55;;;8.35;;
44842;SDS011;31884;52.538;13.820;2023-06-26T02:00:05;11.00;;;8.48;;
44842;SDS011;31884;52.538;13.820;2023-06-26T02:02:35;10.05;;;8.30;;
44842;SDS011;31884;52.538;13.820;2023-06-26T02:05:01;11.25;;;8.60;;
44842;SDS011;31884;52.538;13.820;2023-06-26T02:07:26;10.48;;;8.57;;
44842;SDS011;31884;52.538;13.820;2023-06-26T02:09:52;11.75;;;8.75;;
44842;SDS011;31884;52.538;13.820;2023-06-26T02:12:17;10.45;;;9.30;;
44842;SDS011;31884;52.538;13.820;2023-06-26T02:14:43;9.90;;;7.90;;
44842;SDS011;31884;52.538;13.820;2023-06-26T02:17:08;9.90;;;8.85;;
44842;SDS011;31884;52.538;13.820;2023-06-26T02:19:34;14.70;;;8.52;;
44842;SDS011;31884;52.538;13.820;2023-06-26T02:21:59;10.70;;;8.13;;
44842;SDS011;31884;52.538;13.820;2023-06-26T02:24:25;7.75;;;6.95;;
44842;SDS011;31884;52.538;13.820;2023-06-26T02:26:54;11.48;;;8.43;;
44842;SDS011;31884;52.538;13.820;2023-06-26T02:29:20;9.90;;;8.90;;
44842;SDS011;31884;52.538;13.820;2023-06-26T02:31:46;10.60;;;8.50;;
44842;SDS011;31884;52.538;13.820;2023-06-26T02:34:11;9.45;;;8.43;;
44842;SDS011;31884;52.538;13.820;2023-06-26T02:36:37;11.57;;;9.02;;
44842;SDS011;31884;52.538;13.820;2023-06-26T02:39:02;11.02;;;7.57;;
44842;SDS011;31884;52.538;13.820;2023-06-26T02:41:27;9.80;;;8.75;;
44842;SDS011;31884;52.538;13.820;2023-06-26T02:43:53;9.27;;;8.27;;
44842;SDS011;31884;52.538;13.820;2023-06-26T02:46:18;9.43;;;8.13;;
44842;SDS011;31884;52.538;13.820;2023-06-26T02:48:44;8.90;;;7.53;;
44842;SDS011;31884;52.538;13.820;2023-06-26T02:51:09;10.73;;;8.32;;
44842;SDS011;31884;52.538;13.820;2023-06-26T02:53:35;10.52;;;8.45;;
44842;SDS011;31884;52.538;13.820;2023-06-26T02:56:00;8.80;;;7.85;;
44842;SDS011;31884;52.538;13.820;2023-06-26T02:58:26;10.57;;;8.60;;
44842;SDS011;31884;52.538;13.820;2023-06-26T03:00:51;10.05;;;8.30;;
44842;SDS011;31884;52.538;13.820;2023-06-26T03:03:18;11.75;;;9.32;;
44842;SDS011;31884;52.538;13.820;2023-06-26T03:05:44;11.07;;;9.60;;
44842;SDS011;31884;52.538;13.820;2023-06-26T03:08:09;10.85;;;8.00;;
44842;SDS011;31884;52.538;13.820;2023-06-26T03:10:35;13.10;;;9.30;;
44842;SDS011;31884;52.538;13.820;2023-06-26T03:13:00;12.75;;;9.80;;
44842;SDS011;31884;52.538;13.820;2023-06-26T03:15:26;9.07;;;8.18;;
44842;SDS011;31884;52.538;13.820;2023-06-26T03:17:51;11.45;;;8.80;;
44842;SDS011;31884;52.538;13.820;2023-06-26T03:20:17;10.65;;;8.43;;
44842;SDS011;31884;52.538;13.820;2023-06-26T03:22:42;9.55;;;8.45;;
44842;SDS011;31884;52.538;13.820;2023-06-26T03:25:08;8.95;;;8.05;;
44842;SDS011;31884;52.538;13.820;2023-06-26T03:27:33;9.77;;;8.77;;
44842;SDS011;31884;52.538;13.820;2023-06-26T03:29:59;11.85;;;8.38;;
44842;SDS011;31884;52.538;13.820;2023-06-26T03:32:25;10.90;;;9.52;;
44842;SDS011;31884;52.538;13.820;2023-06-26T03:34:50;9.30;;;8.30;;
44842;SDS011;31884;52.538;13.820;2023-06-26T03:37:17;11.30;;;9.15;;
44842;SDS011;31884;52.538;13.820;2023-06-26T03:39:43;11.77;;;8.80;;
44842;SDS011;31884;52.538;13.820;2023-06-26T03:42:08;11.38;;;9.60;;
44842;SDS011;31884;52.538;13.820;2023-06-26T03:44:34;10.88;;;8.65;;
44842;SDS011;31884;52.538;13.820;2023-06-26T03:46:59;10.38;;;9.27;;
44842;SDS011;31884;52.538;13.820;2023-06-26T03:49:25;13.05;;;10.07;;
44842;SDS011;31884;52.538;13.820;2023-06-26T03:51:50;10.95;;;8.55;;
44842;SDS011;31884;52.538;13.820;2023-06-26T03:54:16;12.15;;;9.80;;
44842;SDS011;31884;52.538;13.820;2023-06-26T03:56:41;12.35;;;9.55;;
44842;SDS011;31884;52.538;13.820;2023-06-26T03:59:07;12.88;;;10.25;;
44842;SDS011;31884;52.538;13.820;2023-06-26T04:01:32;9.43;;;7.97;;
44842;SDS011;31884;52.538;13.820;2023-06-26T04:03:59;10.55;;;9.45;;
44842;SDS011;31884;52.538;13.820;2023-06-26T04:06:25;11.80;;;9.32;;
44842;SDS011;31884;52.538;13.820;2023-06-26T04:08:50;11.38;;;9.50;;
44842;SDS011;31884;52.538;13.820;2023-06-26T04:11:16;14.07;;;9.23;;
44842;SDS011;31884;52.538;13.820;2023-06-26T04:13:41;13.93;;;9.65;;
44842;SDS011;31884;52.538;13.820;2023-06-26T04:16:07;9.35;;;8.43;;
44842;SDS011;31884;52.538;13.820;2023-06-26T04:18:32;11.50;;;9.05;;
44842;SDS011;31884;52.538;13.820;2023-06-26T04:21:13;10.60;;;8.77;;
44842;SDS011;31884;52.538;13.820;2023-06-26T04:23:38;12.27;;;10.55;;
44842;SDS011;31884;52.538;13.820;2023-06-26T04:26:05;10.25;;;9.18;;
44842;SDS011;31884;52.538;13.820;2023-06-26T04:28:32;12.30;;;10.63;;
44842;SDS011;31884;52.538;13.820;2023-06-26T04:30:59;11.15;;;9.98;;
44842;SDS011;31884;52.538;13.820;2023-06-26T04:33:25;11.40;;;9.30;;
44842;SDS011;31884;52.538;13.820;2023-06-26T04:35:51;12.40;;;9.80;;
44842;SDS011;31884;52.538;13.820;2023-06-26T04:38:17;12.90;;;10.73;;
44842;SDS011;31884;52.538;13.820;2023-06-26T04:40:44;11.75;;;9.77;;
44842;SDS011;31884;52.538;13.820;2023-06-26T04:43:09;11.45;;;10.25;;
44842;SDS011;31884;52.538;13.820;2023-06-26T04:45:35;12.27;;;9.07;;
44842;SDS011;31884;52.538;13.820;2023-06-26T04:48:00;10.25;;;9.10;;
44842;SDS011;31884;52.538;13.820;2023-06-26T04:50:26;12.20;;;9.48;;
44842;SDS011;31884;52.538;13.820;2023-06-26T04:52:53;10.50;;;8.57;;
44842;SDS011;31884;52.538;13.820;2023-06-26T04:55:19;10.77;;;9.65;;
44842;SDS011;31884;52.538;13.820;2023-06-26T04:57:46;10.25;;;9.15;;
44842;SDS011;31884;52.538;13.820;2023-06-26T05:00:12;10.20;;;8.25;;
44842;SDS011;31884;52.538;13.820;2023-06-26T05:02:38;9.70;;;8.65;;
44842;SDS011;31884;52.538;13.820;2023-06-26T05:05:04;11.23;;;9.43;;
44842;SDS011;31884;52.538;13.820;2023-06-26T05:07:29;11.57;;;9.10;;
44842;SDS011;31884;52.538;13.820;2023-06-26T05:09:55;9.77;;;8.77;;
44842;SDS011;31884;52.538;13.820;2023-06-26T05:12:20;9.70;;;8.35;;
44842;SDS011;31884;52.538;13.820;2023-06-26T05:14:46;10.20;;;8.50;;
44842;SDS011;31884;52.538;13.820;2023-06-26T05:17:13;10.13;;;8.20;;
44842;SDS011;31884;52.538;13.820;2023-06-26T05:19:39;8.50;;;7.45;;
44842;SDS011;31884;52.538;13.820;2023-06-26T05:22:04;9.10;;;7.80;;
44842;SDS011;31884;52.538;13.820;2023-06-26T05:24:37;8.55;;;7.72;;
44842;SDS011;31884;52.538;13.820;2023-06-26T05:27:03;7.32;;;6.72;;
44842;SDS011;31884;52.538;13.820;2023-06-26T05:29:30;8.13;;;7.30;;
44842;SDS011;31884;52.538;13.820;2023-06-26T05:31:56;7.80;;;7.10;;
44842;SDS011;31884;52.538;13.820;2023-06-26T05:34:23;8.70;;;7.80;;
44842;SDS011;31884;52.538;13.820;2023-06-26T05:36:51;9.95;;;7.50;;
44842;SDS011;31884;52.538;13.820;2023-06-26T05:39:22;9.00;;;6.95;;
44842;SDS011;31884;52.538;13.820;2023-06-26T05:41:48;9.23;;;7.32;;
44842;SDS011;31884;52.538;13.820;2023-06-26T05:44:13;8.90;;;7.32;;
44842;SDS011;31884;52.538;13.820;2023-06-26T05:46:39;9.93;;;7.93;;
44842;SDS011;31884;52.538;13.820;2023-06-26T05:49:05;9.15;;;8.25;;
44842;SDS011;31884;52.538;13.820;2023-06-26T05:51:30;8.75;;;7.85;;
44842;SDS011;31884;52.538;13.820;2023-06-26T05:53:56;8.25;;;7.38;;
44842;SDS011;31884;52.538;13.820;2023-06-26T05:56:22;9.40;;;7.47;;
44842;SDS011;31884;52.538;13.820;2023-06-26T05:58:47;8.57;;;7.32;;
44842;SDS011;31884;52.538;13.820;2023-06-26T06:01:13;7.90;;;7.10;;
44842;SDS011;31884;52.538;13.820;2023-06-26T06:03:39;9.32;;;6.55;;
44842;SDS011;31884;52.538;13.820;2023-06-26T06:06:05;7.53;;;6.82;;
44842;SDS011;31884;52.538;13.820;2023-06-26T06:08:31;7.63;;;6.82;;
44842;SDS011;31884;52.538;13.820;2023-06-26T06:10:56;7.68;;;6.93;;
44842;SDS011;31884;52.538;13.820;2023-06-26T06:13:22;6.68;;;6.00;;
44842;SDS011;31884;52.538;13.820;2023-06-26T06:15:47;6.65;;;5.90;;
44842;SDS011;31884;52.538;13.820;2023-06-26T06:18:14;7.28;;;6.57;;
44842;SDS011;31884;52.538;13.820;2023-06-26T06:20:40;6.47;;;5.88;;
44842;SDS011;31884;52.538;13.820;2023-06-26T06:23:05;6.57;;;5.97;;
44842;SDS011;31884;52.538;13.820;2023-06-26T06:25:31;7.28;;;5.50;;
44842;SDS011;31884;52.538;13.820;2023-06-26T06:27:56;5.70;;;5.20;;
44842;SDS011;31884;52.538;13.820;2023-06-26T06:30:22;5.35;;;4.95;;
44842;SDS011;31884;52.538;13.820;2023-06-26T06:32:47;6.20;;;5.22;;
44842;SDS011;31884;52.538;13.820;2023-06-26T06:35:16;5.38;;;4.88;;
44842;SDS011;31884;52.538;13.820;2023-06-26T06:37:42;5.03;;;4.55;;
44842;SDS011;31884;52.538;13.820;2023-06-26T06:40:08;5.43;;;4.93;;
44842;SDS011;31884;52.538;13.820;2023-06-26T06:42:35;5.28;;;4.80;;
44842;SDS011;31884;52.538;13.820;2023-06-26T06:45:02;5.93;;;5.30;;
44842;SDS011;31884;52.538;13.820;2023-06-26T06:47:28;5.70;;;5.18;;
44842;SDS011;31884;52.538;13.820;2023-06-26T06:49:53;5.30;;;4.82;;
44842;SDS011;31884;52.538;13.820;2023-06-26T06:52:19;6.60;;;5.22;;
44842;SDS011;31884;52.538;13.820;2023-06-26T06:54:51;6.45;;;5.03;;
44842;SDS011;31884;52.538;13.820;2023-06-26T06:57:20;4.57;;;4.18;;
44842;SDS011;31884;52.538;13.820;2023-06-26T06:59:46;5.35;;;4.85;;
44842;SDS011;31884;52.538;13.820;2023-06-26T07:02:13;4.70;;;4.35;;
44842;SDS011;31884;52.538;13.820;2023-06-26T07:04:39;6.47;;;4.90;;
44842;SDS011;31884;52.538;13.820;2023-06-26T07:07:04;5.00;;;4.60;;
44842;SDS011;31884;52.538;13.820;2023-06-26T07:09:30;5.60;;;5.00;;
44842;SDS011;31884;52.538;13.820;2023-06-26T07:11:55;5.85;;;4.60;;
44842;SDS011;31884;52.538;13.820;2023-06-26T07:14:21;4.53;;;4.13;;
44842;SDS011;31884;52.538;13.820;2023-06-26T07:16:46;4.72;;;4.32;;
44842;SDS011;31884;52.538;13.820;2023-06-26T07:19:12;4.97;;;4.57;;
44842;SDS011;31884;52.538;13.820;2023-06-26T07:21:37;4.53;;;4.13;;
44842;SDS011;31884;52.538;13.820;2023-06-26T07:24:03;5.10;;;4.63;;
44842;SDS011;31884;52.538;13.820;2023-06-26T07:26:28;6.75;;;3.88;;
44842;SDS011;31884;52.538;13.820;2023-06-26T07:28:54;5.63;;;4.45;;
44842;SDS011;31884;52.538;13.820;2023-06-26T07:31:21;5.78;;;4.28;;
44842;SDS011;31884;52.538;13.820;2023-06-26T07:33:47;4.07;;;3.67;;
44842;SDS011;31884;52.538;13.820;2023-06-26T07:36:12;4.70;;;4.03;;
44842;SDS011;31884;52.538;13.820;2023-06-26T07:38:38;4.43;;;4.03;;
44842;SDS011;31884;52.538;13.820;2023-06-26T07:41:03;5.07;;;3.88;;
44842;SDS011;31884;52.538;13.820;2023-06-26T07:43:28;6.97;;;4.00;;
44842;SDS011;31884;52.538;13.820;2023-06-26T07:45:54;4.22;;;3.90;;
44842;SDS011;31884;52.538;13.820;2023-06-26T07:48:19;3.97;;;3.55;;
44842;SDS011;31884;52.538;13.820;2023-06-26T07:50:45;5.82;;;4.60;;
44842;SDS011;31884;52.538;13.820;2023-06-26T07:53:10;4.43;;;3.97;;
44842;SDS011;31884;52.538;13.820;2023-06-26T07:55:36;4.38;;;3.85;;
44842;SDS011;31884;52.538;13.820;2023-06-26T07:58:01;4.93;;;4.00;;
44842;SDS011;31884;52.538;13.820;2023-06-26T08:00:27;4.00;;;3.70;;
44842;SDS011;31884;52.538;13.820;2023-06-26T08:02:52;3.92;;;3.63;;
44842;SDS011;31884;52.538;13.820;2023-06-26T08:05:18;3.50;;;3.20;;
44842;SDS011;31884;52.538;13.820;2023-06-26T08:07:43;4.05;;;3.75;;
44842;SDS011;31884;52.538;13.820;2023-06-26T08:10:09;4.45;;;3.78;;
44842;SDS011;31884;52.538;13.820;2023-06-26T08:12:35;4.53;;;3.70;;
44842;SDS011;31884;52.538;13.820;2023-06-26T08:15:05;4.75;;;4.35;;
44842;SDS011;31884;52.538;13.820;2023-06-26T08:17:31;4.43;;;3.63;;
44842;SDS011;31884;52.538;13.820;2023-06-26T08:19:56;4.35;;;3.83;;
44842;SDS011;31884;52.538;13.820;2023-06-26T08:22:23;3.83;;;3.30;;
44842;SDS011;31884;52.538;13.820;2023-06-26T08:24:48;4.05;;;3.75;;
44842;SDS011;31884;52.538;13.820;2023-06-26T08:27:14;4.32;;;4.00;;
44842;SDS011;31884;52.538;13.820;2023-06-26T08:29:39;4.97;;;4.57;;
44842;SDS011;31884;52.538;13.820;2023-06-26T08:32:05;5.90;;;4.57;;
44842;SDS011;31884;52.538;13.820;2023-06-26T08:34:30;4.10;;;3.70;;
44842;SDS011;31884;52.538;13.820;2023-06-26T08:36:56;3.95;;;3.65;;
44842;SDS011;31884;52.538;13.820;2023-06-26T08:39:21;4.43;;;3.60;;
44842;SDS011;31884;52.538;13.820;2023-06-26T08:41:47;5.10;;;4.05;;
44842;SDS011;31884;52.538;13.820;2023-06-26T08:44:12;4.25;;;3.85;;
44842;SDS011;31884;52.538;13.820;2023-06-26T08:46:38;6.93;;;4.53;;
44842;SDS011;31884;52.538;13.820;2023-06-26T08:49:10;5.07;;;4.57;;
44842;SDS011;31884;52.538;13.820;2023-06-26T08:51:43;4.20;;;3.90;;
44842;SDS011;31884;52.538;13.820;2023-06-26T08:54:15;5.38;;;4.90;;
44842;SDS011;31884;52.538;13.820;2023-06-26T08:56:44;4.70;;;4.20;;
44842;SDS011;31884;52.538;13.820;2023-06-26T08:59:13;3.78;;;3.47;;
44842;SDS011;31884;52.538;13.820;2023-06-26T09:01:39;4.32;;;3.70;;
44842;SDS011;31884;52.538;13.820;2023-06-26T09:04:05;4.00;;;3.70;;
44842;SDS011;31884;52.538;13.820;2023-06-26T09:06:31;4.00;;;3.70;;
44842;SDS011;31884;52.538;13.820;2023-06-26T09:08:57;3.80;;;3.50;;
44842;SDS011;31884;52.538;13.820;2023-06-26T09:11:23;3.25;;;3.05;;
44842;SDS011;31884;52.538;13.820;2023-06-26T09:13:48;3.50;;;3.20;;
44842;SDS011;31884;52.538;13.820;2023-06-26T09:16:14;3.97;;;3.65;;
44842;SDS011;31884;52.538;13.820;2023-06-26T09:18:40;3.53;;;3.20;;
44842;SDS011;31884;52.538;13.820;2023-06-26T09:21:07;3.83;;;3.53;;
44842;SDS011;31884;52.538;13.820;2023-06-26T09:23:34;3.92;;;3.63;;
44842;SDS011;31884;52.538;13.820;2023-06-26T09:26:04;3.80;;;3.50;;
44842;SDS011;31884;52.538;13.820;2023-06-26T09:28:31;3.80;;;3.50;;
44842;SDS011;31884;52.538;13.820;2023-06-26T09:31:01;4.18;;;3.17;;
44842;SDS011;31884;52.538;13.820;2023-06-26T09:33:32;4.43;;;3.30;;
44842;SDS011;31884;52.538;13.820;2023-06-26T09:35:59;4.22;;;3.83;;
44842;SDS011;31884;52.538;13.820;2023-06-26T09:38:25;6.03;;;3.83;;
44842;SDS011;31884;52.538;13.820;2023-06-26T09:40:51;4.65;;;3.95;;
44842;SDS011;31884;52.538;13.820;2023-06-26T09:43:17;3.78;;;3.47;;
44842;SDS011;31884;52.538;13.820;2023-06-26T09:45:44;3.97;;;3.38;;
44842;SDS011;31884;52.538;13.820;2023-06-26T09:48:09;4.53;;;4.13;;
44842;SDS011;31884;52.538;13.820;2023-06-26T09:50:36;5.30;;;3.83;;
44842;SDS011;31884;52.538;13.820;2023-06-26T09:53:07;3.67;;;3.38;;
44842;SDS011;31884;52.538;13.820;2023-06-26T09:55:34;3.97;;;3.67;;
44842;SDS011;31884;52.538;13.820;2023-06-26T09:58:01;4.95;;;4.32;;
44842;SDS011;31884;52.538;13.820;2023-06-26T10:00:27;3.88;;;3.58;;
44842;SDS011;31884;52.538;13.820;2023-06-26T10:02:53;3.67;;;3.38;;
44842;SDS011;31884;52.538;13.820;2023-06-26T10:05:18;5.00;;;4.25;;
44842;SDS011;31884;52.538;13.820;2023-06-26T10:07:44;4.18;;;3.85;;
44842;SDS011;31884;52.538;13.820;2023-06-26T10:10:11;4.53;;;4.10;;
44842;SDS011;31884;52.538;13.820;2023-06-26T10:12:37;4.72;;;4.32;;
44842;SDS011;31884;52.538;13.820;2023-06-26T10:15:03;5.30;;;4.10;;
44842;SDS011;31884;52.538;13.820;2023-06-26T10:17:30;4.22;;;3.83;;
44842;SDS011;31884;52.538;13.820;2023-06-26T10:20:00;4.45;;;4.05;;
44842;SDS011;31884;52.538;13.820;2023-06-26T10:22:29;3.63;;;3.28;;
44842;SDS011;31884;52.538;13.820;2023-06-26T10:24:58;3.83;;;3.47;;
44842;SDS011;31884;52.538;13.820;2023-06-26T10:27:26;4.35;;;3.33;;
44842;SDS011;31884;52.538;13.820;2023-06-26T10:29:59;3.63;;;3.33;;
44842;SDS011;31884;52.538;13.820;2023-06-26T10:32:28;4.93;;;3.80;;
44842;SDS011;31884;52.538;13.820;2023-06-26T10:34:54;4.75;;;4.10;;
44842;SDS011;31884;52.538;13.820;2023-06-26T10:37:21;4.65;;;4.10;;
44842;SDS011;31884;52.538;13.820;2023-06-26T10:40:05;4.40;;;4.00;;
44842;SDS011;31884;52.538;13.820;2023-06-26T10:42:35;4.18;;;3.80;;
44842;SDS011;31884;52.538;13.820;2023-06-26T10:45:11;4.68;;;4.28;;
44842;SDS011;31884;52.538;13.820;2023-06-26T10:47:39;4.00;;;3.60;;
44842;SDS011;31884;52.538;13.820;2023-06-26T10:53:10;4.00;;;3.60;;
44842;SDS011;31884;52.538;13.820;2023-06-26T10:55:43;4.13;;;3.53;;
44842;SDS011;31884;52.538;13.820;2023-06-26T10:58:29;3.90;;;3.60;;
44842;SDS011;31884;52.538;13.820;2023-06-26T11:03:36;4.25;;;3.85;;
44842;SDS011;31884;52.538;13.820;2023-06-26T11:06:09;3.90;;;3.50;;
44842;SDS011;31884;52.538;13.820;2023-06-26T11:08:52;3.55;;;3.25;;
44842;SDS011;31884;52.538;13.820;2023-06-26T11:14:20;4.30;;;3.90;;
44842;SDS011;31884;52.538;13.820;2023-06-26T11:16:46;6.03;;;3.53;;
44842;SDS011;31884;52.538;13.820;2023-06-26T11:19:13;4.20;;;3.55;;
44842;SDS011;31884;52.538;13.820;2023-06-26T11:21:39;4.70;;;3.75;;
44842;SDS011;31884;52.538;13.820;2023-06-26T11:24:06;4.70;;;4.10;;
44842;SDS011;31884;52.538;13.820;2023-06-26T11:26:37;3.63;;;3.17;;
44842;SDS011;31884;52.538;13.820;2023-06-26T11:29:04;5.00;;;4.10;;
44842;SDS011;31884;52.538;13.820;2023-06-26T11:31:30;3.85;;;3.55;;
44842;SDS011;31884;52.538;13.820;2023-06-26T11:33:57;4.88;;;3.58;;
44842;SDS011;31884;52.538;13.820;2023-06-26T11:36:24;3.35;;;3.05;;
44842;SDS011;31884;52.538;13.820;2023-06-26T11:38:57;3.50;;;3.13;;
44842;SDS011;31884;52.538;13.820;2023-06-26T11:41:25;3.42;;;3.13;;
44842;SDS011;31884;52.538;13.820;2023-06-26T11:44:05;3.77;;;3.20;;
44842;SDS011;31884;52.538;13.820;2023-06-26T11:46:31;4.22;;;3.33;;
44842;SDS011;31884;52.538;13.820;2023-06-26T11:48:58;4.18;;;3.35;;
44842;SDS011;31884;52.538;13.820;2023-06-26T11:51:26;3.60;;;3.28;;
44842;SDS011;31884;52.538;13.820;2023-06-26T11:53:53;5.28;;;4.32;;
44842;SDS011;31884;52.538;13.820;2023-06-26T11:56:19;4.53;;;4.13;;
44842;SDS011;31884;52.538;13.820;2023-06-26T11:58:54;4.95;;;4.22;;
44842;SDS011;31884;52.538;13.820;2023-06-26T12:01:34;4.50;;;4.10;;
44842;SDS011;31884;52.538;13.820;2023-06-26T12:04:10;4.10;;;3.80;;
44842;SDS011;31884;52.538;13.820;2023-06-26T12:06:42;4.35;;;3.78;;
44842;SDS011;31884;52.538;13.820;2023-06-26T12:09:11;3.78;;;3.47;;
44842;SDS011;31884;52.538;13.820;2023-06-26T12:11:38;4.43;;;4.00;;
44842;SDS011;31884;52.538;13.820;2023-06-26T12:14:07;4.35;;;3.60;;
44842;SDS011;31884;52.538;13.820;2023-06-26T12:16:33;4.32;;;3.60;;
44842;SDS011;31884;52.538;13.820;2023-06-26T12:19:00;4.25;;;3.85;;
44842;SDS011;31884;52.538;13.820;2023-06-26T12:21:28;4.05;;;3.35;;
44842;SDS011;31884;52.538;13.820;2023-06-26T12:24:09;4.53;;;4.13;;
44842;SDS011;31884;52.538;13.820;2023-06-26T12:26:41;5.22;;;4.32;;
44842;SDS011;31884;52.538;13.820;2023-06-26T12:29:12;4.32;;;3.92;;
44842;SDS011;31884;52.538;13.820;2023-06-26T12:31:45;4.30;;;3.90;;
44842;SDS011;31884;52.538;13.820;2023-06-26T12:34:14;3.88;;;3.40;;
44842;SDS011;31884;52.538;13.820;2023-06-26T12:36:46;4.30;;;4.00;;
44842;SDS011;31884;52.538;13.820;2023-06-26T12:39:15;4.28;;;3.78;;
44842;SDS011;31884;52.538;13.820;2023-06-26T12:41:53;4.82;;;3.20;;
44842;SDS011;31884;52.538;13.820;2023-06-26T12:44:20;4.50;;;4.10;;
44842;SDS011;31884;52.538;13.820;2023-06-26T12:46:48;4.40;;;4.00;;
44842;SDS011;31884;52.538;13.820;2023-06-26T12:49:14;4.90;;;4.40;;
44842;SDS011;31884;52.538;13.820;2023-06-26T12:51:40;4.43;;;4.03;;
44842;SDS011;31884;52.538;13.820;2023-06-26T12:54:07;3.72;;;3.42;;
44842;SDS011;31884;52.538;13.820;2023-06-26T12:56:33;4.28;;;3.88;;
44842;SDS011;31884;52.538;13.820;2023-06-26T12:58:58;4.38;;;3.97;;
44842;SDS011;31884;52.538;13.820;2023-06-26T13:01:24;4.57;;;4.10;;
44842;SDS011;31884;52.538;13.820;2023-06-26T13:03:49;4.13;;;3.72;;
44842;SDS011;31884;52.538;13.820;2023-06-26T13:06:16;4.43;;;3.88;;
44842;SDS011;31884;52.538;13.820;2023-06-26T13:08:42;3.78;;;3.47;;
44842;SDS011;31884;52.538;13.820;2023-06-26T13:11:08;4.35;;;3.85;;
44842;SDS011;31884;52.538;13.820;2023-06-26T13:13:34;5.22;;;3.90;;
44842;SDS011;31884;52.538;13.820;2023-06-26T13:15:59;3.58;;;3.17;;
44842;SDS011;31884;52.538;13.820;2023-06-26T13:18:25;4.18;;;3.80;;
44842;SDS011;31884;52.538;13.820;2023-06-26T13:20:50;4.50;;;4.10;;
44842;SDS011;31884;52.538;13.820;2023-06-26T13:23:16;5.07;;;3.97;;
44842;SDS011;31884;52.538;13.820;2023-06-26T13:25:43;4.57;;;4.10;;
44842;SDS011;31884;52.538;13.820;2023-06-26T13:28:09;5.25;;;4.25;;
44842;SDS011;31884;52.538;13.820;2023-06-26T13:30:35;4.35;;;3.95;;
44842;SDS011;31884;52.538;13.820;2023-06-26T13:33:00;3.88;;;3.58;;
44842;SDS011;31884;52.538;13.820;2023-06-26T13:35:26;4.70;;;4.30;;
44842;SDS011;31884;52.538;13.820;2023-06-26T13:37:51;4.22;;;3.83;;
44842;SDS011;31884;52.538;13.820;2023-06-26T13:40:16;5.65;;;4.03;;
44842;SDS011;31884;52.538;13.820;2023-06-26T13:42:42;4.00;;;3.60;;
44842;SDS011;31884;52.538;13.820;2023-06-26T13:45:09;4.32;;;3.92;;
44842;SDS011;31884;52.538;13.820;2023-06-26T13:47:35;4.70;;;4.30;;
44842;SDS011;31884;52.538;13.820;2023-06-26T13:50:02;4.32;;;3.85;;
44842;SDS011;31884;52.538;13.820;2023-06-26T13:52:28;4.70;;;4.18;;
44842;SDS011;31884;52.538;13.820;2023-06-26T13:54:54;5.47;;;4.47;;
44842;SDS011;31884;52.538;13.820;2023-06-26T13:57:19;6.07;;;4.70;;
44842;SDS011;31884;52.538;13.820;2023-06-26T13:59:47;4.38;;;3.95;;
44842;SDS011;31884;52.538;13.820;2023-06-26T14:02:12;6.13;;;4.53;;
44842;SDS011;31884;52.538;13.820;2023-06-26T14:04:38;4.60;;;4.20;;
44842;SDS011;31884;52.538;13.820;2023-06-26T14:07:04;5.97;;;4.38;;
44842;SDS011;31884;52.538;13.820;2023-06-26T14:09:30;6.40;;;4.13;;
44842;SDS011;31884;52.538;13.820;2023-06-26T14:11:55;4.60;;;4.20;;
44842;SDS011;31884;52.538;13.820;2023-06-26T14:14:21;4.63;;;4.10;;
44842;SDS011;31884;52.538;13.820;2023-06-26T14:16:46;4.60;;;3.90;;
44842;SDS011;31884;52.538;13.820;2023-06-26T14:19:13;4.10;;;3.70;;
44842;SDS011;31884;52.538;13.820;2023-06-26T14:21:42;4.20;;;3.85;;
44842;SDS011;31884;52.538;13.820;2023-06-26T14:24:08;4.40;;;3.78;;
44842;SDS011;31884;52.538;13.820;2023-06-26T14:26:33;6.22;;;4.25;;
44842;SDS011;31884;52.538;13.820;2023-06-26T14:28:59;4.90;;;4.35;;
44842;SDS011;31884;52.538;13.820;2023-06-26T14:31:25;4.55;;;4.15;;
44842;SDS011;31884;52.538;13.820;2023-06-26T14:33:52;3.88;;;3.58;;
44842;SDS011;31884;52.538;13.820;2023-06-26T14:36:18;6.03;;;4.55;;
44842;SDS011;31884;52.538;13.820;2023-06-26T14:38:44;4.75;;;4.35;;
44842;SDS011;31884;52.538;13.820;2023-06-26T14:41:09;6.25;;;4.15;;